createdAt,value
2017-07-03T00:00:59.346Z,101430.13
2017-07-03T00:03:26.744Z,101432.31
2017-07-03T00:05:54.140Z,101440.37
2017-07-03T00:08:21.547Z,101431.60
2017-07-03T00:10:48.939Z,101438.79
2017-07-03T00:13:16.344Z,101439.73
2017-07-03T00:15:43.741Z,101437.55
2017-07-03T00:18:11.143Z,101435.45
2017-07-03T00:20:38.526Z,101439.12
2017-07-03T00:23:05.926Z,101437.72
2017-07-03T00:25:33.314Z,101439.66
2017-07-03T00:28:00.716Z,101439.42
2017-07-03T00:30:28.162Z,101439.07
2017-07-03T00:32:55.568Z,101447.05
2017-07-03T00:35:22.956Z,101438.49
2017-07-03T00:37:50.354Z,101438.33
2017-07-03T00:40:17.751Z,101440.58
2017-07-03T00:42:45.144Z,101441.23
2017-07-03T00:45:12.535Z,101442.31
2017-07-03T00:47:39.936Z,101444.32
2017-07-03T00:50:07.323Z,101443.22
2017-07-03T00:52:34.722Z,101440.30
2017-07-03T00:55:02.114Z,101439.03
2017-07-03T00:57:29.521Z,101440.28
2017-07-03T00:59:56.923Z,101436.23
2017-07-03T01:02:24.327Z,101439.19
2017-07-03T01:04:51.729Z,101445.81
2017-07-03T01:07:19.115Z,101444.06
2017-07-03T01:09:46.508Z,101442.48
2017-07-03T01:12:13.906Z,101444.26
2017-07-03T01:14:41.517Z,101445.80
2017-07-03T01:17:08.911Z,101445.09
2017-07-03T01:19:36.316Z,101448.77
2017-07-03T01:22:03.716Z,101450.25
2017-07-03T01:24:31.347Z,101445.86
2017-07-03T01:26:58.751Z,101447.65
2017-07-03T01:29:26.159Z,101440.21
2017-07-03T01:31:53.554Z,101446.97
2017-07-03T01:34:20.955Z,101447.55
2017-07-03T01:36:48.348Z,101444.37
2017-07-03T01:39:15.744Z,101445.38
2017-07-03T01:41:43.140Z,101451.23
2017-07-03T01:44:10.538Z,101446.21
2017-07-03T01:46:37.931Z,101438.78
2017-07-03T01:49:05.327Z,101438.52
2017-07-03T01:51:32.719Z,101433.55
2017-07-03T01:54:00.123Z,101434.78
2017-07-03T01:56:27.512Z,101440.92
2017-07-03T01:58:54.914Z,101442.97
2017-07-03T02:01:22.303Z,101437.52
2017-07-03T02:03:49.707Z,101441.12
2017-07-03T02:06:17.099Z,101442.94
2017-07-03T02:08:44.494Z,101443.48
2017-07-03T02:11:11.900Z,101443.75
2017-07-03T02:13:39.292Z,101440.56
2017-07-03T02:16:06.695Z,101443.20
2017-07-03T02:18:34.087Z,101443.43
2017-07-03T02:21:01.495Z,101446.28
2017-07-03T02:23:28.891Z,101440.24
2017-07-03T02:25:56.287Z,101443.95
2017-07-03T02:28:23.737Z,101447.91
2017-07-03T02:30:51.135Z,101448.14
2017-07-03T02:33:18.518Z,101444.27
2017-07-03T02:35:45.923Z,101443.48
2017-07-03T02:38:13.617Z,101435.11
2017-07-03T02:40:41.023Z,101439.62
2017-07-03T02:43:08.417Z,101445.12
2017-07-03T02:45:35.810Z,101451.63
2017-07-03T02:48:03.213Z,101439.47
2017-07-03T02:50:30.609Z,101440.04
2017-07-03T02:52:57.997Z,101443.68
2017-07-03T02:55:25.408Z,101439.83
2017-07-03T02:57:52.787Z,101430.41
2017-07-03T03:00:20.191Z,101433.30
2017-07-03T03:02:47.580Z,101436.13
2017-07-03T03:05:14.995Z,101441.45
2017-07-03T03:07:42.387Z,101443.76
2017-07-03T03:10:09.799Z,101445.28
2017-07-03T03:12:42.920Z,101441.13
2017-07-03T03:15:10.313Z,101446.36
2017-07-03T03:17:37.710Z,101450.36
2017-07-03T03:20:05.106Z,101452.84
2017-07-03T03:22:32.499Z,101449.92
2017-07-03T03:24:59.898Z,101451.89
2017-07-03T03:27:27.295Z,101451.52
2017-07-03T03:29:54.691Z,101453.38
2017-07-03T03:32:22.087Z,101449.19
2017-07-03T03:34:49.495Z,101455.95
2017-07-03T03:37:16.874Z,101451.03
2017-07-03T03:39:44.277Z,101457.92
2017-07-03T03:42:11.670Z,101454.09
2017-07-03T03:44:39.079Z,101456.75
2017-07-03T03:47:06.467Z,101452.11
2017-07-03T03:49:34.067Z,101448.91
2017-07-03T03:52:01.471Z,101448.23
2017-07-03T03:54:28.859Z,101457.15
2017-07-03T03:56:56.259Z,101451.55
2017-07-03T03:59:23.652Z,101455.39
2017-07-03T04:01:51.051Z,101455.13
2017-07-03T04:04:18.451Z,101460.08
2017-07-03T04:06:45.848Z,101456.44
2017-07-03T04:09:13.241Z,101452.42
2017-07-03T04:11:40.640Z,101454.40
2017-07-03T04:14:08.323Z,101447.91
2017-07-03T04:16:35.717Z,101454.67
2017-07-03T04:19:03.323Z,101453.28
2017-07-03T04:21:30.727Z,101456.19
2017-07-03T04:23:58.126Z,101461.69
2017-07-03T04:26:25.526Z,101467.83
2017-07-03T04:28:52.930Z,101461.86
2017-07-03T04:31:20.327Z,101457.33
2017-07-03T04:33:47.962Z,101465.11
2017-07-03T04:36:15.363Z,101466.38
2017-07-03T04:38:42.763Z,101464.73
2017-07-03T04:41:10.167Z,101456.69
2017-07-03T04:43:37.568Z,101459.12
2017-07-03T04:46:04.962Z,101467.40
2017-07-03T04:48:32.350Z,101462.39
2017-07-03T04:50:59.759Z,101462.66
2017-07-03T04:53:27.164Z,101462.18
2017-07-03T04:55:54.568Z,101465.14
2017-07-03T04:58:22.935Z,101463.98
2017-07-03T05:00:50.330Z,101465.09
2017-07-03T05:03:17.728Z,101470.03
2017-07-03T05:05:45.119Z,101461.52
2017-07-03T05:08:12.527Z,101465.51
2017-07-03T05:10:40.223Z,101465.05
2017-07-03T05:13:07.623Z,101467.27
2017-07-03T05:15:35.021Z,101470.30
2017-07-03T05:18:02.423Z,101471.11
2017-07-03T05:20:29.834Z,101467.17
2017-07-03T05:22:57.239Z,101471.28
2017-07-03T05:25:24.634Z,101473.00
2017-07-03T05:27:52.030Z,101476.41
2017-07-03T05:30:19.433Z,101481.92
2017-07-03T05:32:46.826Z,101471.42
2017-07-03T05:35:14.228Z,101479.12
2017-07-03T05:37:41.637Z,101478.68
2017-07-03T05:40:09.063Z,101481.03
2017-07-03T05:42:42.048Z,101482.38
2017-07-03T05:45:09.738Z,101482.95
2017-07-03T05:47:37.159Z,101482.84
2017-07-03T05:50:04.535Z,101481.59
2017-07-03T05:52:31.935Z,101484.52
2017-07-03T05:54:59.323Z,101488.34
2017-07-03T05:57:26.715Z,101483.70
2017-07-03T05:59:54.120Z,101485.75
2017-07-03T06:02:21.523Z,101486.23
2017-07-03T06:04:59.371Z,101483.22
2017-07-03T06:07:26.763Z,101493.42
2017-07-03T06:09:54.160Z,101491.89
2017-07-03T06:12:21.563Z,101500.45
2017-07-03T06:14:48.971Z,101500.41
2017-07-03T06:17:16.363Z,101495.31
2017-07-03T06:19:43.763Z,101493.84
2017-07-03T06:22:11.154Z,101484.50
2017-07-03T06:24:38.563Z,101492.16
2017-07-03T06:27:05.963Z,101489.38
2017-07-03T06:29:33.363Z,101493.19
2017-07-03T06:32:00.759Z,101498.16
2017-07-03T06:34:28.159Z,101496.91
2017-07-03T06:36:55.551Z,101497.72
2017-07-03T06:39:23.748Z,101502.51
2017-07-03T06:41:51.140Z,101497.66
2017-07-03T06:44:18.538Z,101504.16
2017-07-03T06:46:45.936Z,101501.81
2017-07-03T06:49:13.348Z,101498.73
2017-07-03T06:51:40.731Z,101496.38
2017-07-03T06:54:08.131Z,101493.77
2017-07-03T06:56:35.527Z,101502.18
2017-07-03T06:59:02.931Z,101495.92
2017-07-03T07:01:30.322Z,101500.63
2017-07-03T07:03:57.734Z,101486.19
2017-07-03T07:06:25.131Z,101489.41
2017-07-03T07:08:52.531Z,101492.97
2017-07-03T07:11:20.029Z,101489.55
2017-07-03T07:13:47.418Z,101494.77
2017-07-03T07:16:14.806Z,101497.50
2017-07-03T07:18:42.214Z,101498.28
2017-07-03T07:21:09.601Z,101491.84
2017-07-03T07:23:38.588Z,101494.61
2017-07-03T07:26:06.186Z,101499.16
2017-07-03T07:28:33.586Z,101494.33
2017-07-03T07:31:00.970Z,101490.13
2017-07-03T07:33:28.379Z,101489.70
2017-07-03T07:35:55.772Z,101491.30
2017-07-03T07:38:23.159Z,101496.43
2017-07-03T07:40:50.562Z,101489.96
2017-07-03T07:43:17.947Z,101489.91
2017-07-03T07:45:45.343Z,101483.80
2017-07-03T07:48:12.726Z,101482.04
2017-07-03T07:50:40.118Z,101472.36
2017-07-03T07:53:07.723Z,101474.42
2017-07-03T07:55:35.119Z,101476.69
2017-07-03T07:58:02.511Z,101466.16
2017-07-03T08:00:29.912Z,101468.44
2017-07-03T08:02:57.511Z,101465.62
2017-07-03T08:05:24.915Z,101471.94
2017-07-03T08:07:52.311Z,101468.59
2017-07-03T08:10:19.710Z,101469.56
2017-07-03T08:12:47.101Z,101463.16
2017-07-03T08:15:14.508Z,101460.30
2017-07-03T08:17:41.910Z,101462.36
2017-07-03T08:20:09.296Z,101461.42
2017-07-03T08:22:36.724Z,101449.17
2017-07-03T08:25:04.103Z,101458.50
2017-07-03T08:27:31.510Z,101457.63
2017-07-03T08:29:59.723Z,101453.60
2017-07-03T08:32:27.127Z,101450.22
2017-07-03T08:34:54.526Z,101446.83
2017-07-03T08:37:21.919Z,101442.82
2017-07-03T08:39:49.325Z,101441.77
2017-07-03T08:42:16.716Z,101441.44
2017-07-03T08:44:44.107Z,101444.90
2017-07-03T08:47:11.509Z,101446.50
2017-07-03T08:49:38.912Z,101445.99
2017-07-03T08:52:06.308Z,101443.84
2017-07-03T08:54:33.698Z,101450.78
2017-07-03T08:57:01.323Z,101451.36
2017-07-03T08:59:28.699Z,101449.51
2017-07-03T09:01:56.102Z,101438.34
2017-07-03T09:04:23.496Z,101432.88
2017-07-03T09:06:50.906Z,101431.54
2017-07-03T09:09:18.300Z,101429.25
2017-07-03T09:11:45.740Z,101423.33
2017-07-03T09:14:13.134Z,101421.11
2017-07-03T09:16:40.531Z,101430.64
2017-07-03T09:19:08.138Z,101416.00
2017-07-03T09:21:35.766Z,101410.22
2017-07-03T09:24:03.151Z,101406.59
2017-07-03T09:26:30.555Z,101407.63
2017-07-03T09:28:57.942Z,101401.22
2017-07-03T09:31:25.341Z,101404.03
2017-07-03T09:33:52.723Z,101403.79
2017-07-03T09:36:20.116Z,101400.52
2017-07-03T09:38:47.504Z,101399.50
2017-07-03T09:41:14.902Z,101394.94
2017-07-03T09:43:42.291Z,101393.59
2017-07-03T09:46:09.699Z,101389.52
2017-07-03T09:48:37.091Z,101394.37
2017-07-03T09:51:04.487Z,101383.14
2017-07-03T09:53:31.879Z,101396.37
2017-07-03T09:55:59.307Z,101393.17
2017-07-03T09:58:26.695Z,101384.03
2017-07-03T10:00:54.090Z,101390.09
2017-07-03T10:03:21.495Z,101386.58
2017-07-03T10:05:48.884Z,101383.36
2017-07-03T10:08:16.279Z,101388.12
2017-07-03T10:10:43.671Z,101387.89
2017-07-03T10:13:11.080Z,101379.94
2017-07-03T10:15:38.468Z,101378.84
2017-07-03T10:18:05.894Z,101377.66
2017-07-03T10:20:33.287Z,101379.07
2017-07-03T10:23:01.570Z,101374.51
2017-07-03T10:25:29.041Z,101365.97
2017-07-03T10:27:56.655Z,101368.34
2017-07-03T10:30:24.044Z,101366.86
2017-07-03T10:32:51.655Z,101368.80
2017-07-03T10:35:19.047Z,101354.78
2017-07-03T10:37:46.459Z,101362.43
2017-07-03T10:40:13.851Z,101364.91
2017-07-03T10:42:41.250Z,101359.65
2017-07-03T10:45:08.642Z,101358.53
2017-07-03T10:47:36.080Z,101359.88
2017-07-03T10:50:03.465Z,101348.18
2017-07-03T10:52:30.871Z,101350.69
2017-07-03T10:54:58.275Z,101349.13
2017-07-03T10:57:25.667Z,101343.62
2017-07-03T10:59:53.051Z,101341.20
2017-07-03T11:02:20.447Z,101338.68
2017-07-03T11:04:47.835Z,101334.16
2017-07-03T11:07:15.235Z,101337.99
2017-07-03T11:09:42.620Z,101339.70
2017-07-03T11:12:10.015Z,101346.78
2017-07-03T11:14:37.413Z,101342.22
2017-07-03T11:17:04.807Z,101337.17
2017-07-03T11:19:32.211Z,101338.87
2017-07-03T11:21:59.604Z,101339.64
2017-07-03T11:24:27.007Z,101330.84
2017-07-03T11:26:54.456Z,101330.42
2017-07-03T11:29:21.851Z,101326.30
2017-07-03T11:31:49.279Z,101327.83
2017-07-03T11:34:16.679Z,101323.51
2017-07-03T11:36:44.931Z,101316.45
2017-07-03T11:39:12.327Z,101314.34
2017-07-03T11:41:39.718Z,101312.26
2017-07-03T11:44:07.124Z,101307.50
2017-07-03T11:46:34.518Z,101302.55
2017-07-03T11:49:01.918Z,101307.94
2017-07-03T11:51:29.312Z,101307.25
2017-07-03T11:53:56.711Z,101303.62
2017-07-03T11:56:24.095Z,101290.71
2017-07-03T11:58:51.499Z,101293.00
2017-07-03T12:01:18.883Z,101299.21
2017-07-03T12:03:46.283Z,101294.59
2017-07-03T12:06:13.682Z,101292.48
2017-07-03T12:08:41.076Z,101291.31
2017-07-03T12:11:08.485Z,101286.34
2017-07-03T12:13:35.883Z,101280.15
2017-07-03T12:16:03.302Z,101276.28
2017-07-03T12:18:30.882Z,101273.84
2017-07-03T12:20:58.266Z,101271.31
2017-07-03T12:23:25.669Z,101257.64
2017-07-03T12:25:53.059Z,101260.43
2017-07-03T12:28:20.463Z,101255.45
2017-07-03T12:30:47.858Z,101252.48
2017-07-03T12:33:15.258Z,101251.74
2017-07-03T12:35:42.655Z,101255.02
2017-07-03T12:38:10.043Z,101241.28
2017-07-03T12:40:37.439Z,101251.41
2017-07-03T12:43:04.832Z,101248.11
2017-07-03T12:45:32.915Z,101240.48
2017-07-03T12:48:00.307Z,101241.27
2017-07-03T12:50:27.706Z,101238.78
2017-07-03T12:52:55.940Z,101225.13
2017-07-03T12:55:23.347Z,101224.34
2017-07-03T12:57:50.745Z,101218.91
2017-07-03T13:00:18.139Z,101224.58
2017-07-03T13:02:45.537Z,101228.21
2017-07-03T13:05:12.935Z,101218.03
2017-07-03T13:07:40.551Z,101222.93
2017-07-03T13:10:08.164Z,101229.11
2017-07-03T13:12:35.554Z,101228.14
2017-07-03T13:15:02.947Z,101218.30
2017-07-03T13:17:30.344Z,101217.59
2017-07-03T13:19:57.748Z,101211.96
2017-07-03T13:22:25.139Z,101212.45
2017-07-03T13:24:52.539Z,101219.27
2017-07-03T13:27:19.937Z,101208.39
2017-07-03T13:29:47.368Z,101207.14
2017-07-03T13:32:14.759Z,101205.08
2017-07-03T13:34:42.167Z,101208.23
2017-07-03T13:37:09.556Z,101209.92
2017-07-03T13:39:36.946Z,101209.95
2017-07-03T13:42:04.362Z,101204.14
2017-07-03T13:44:31.735Z,101194.91
2017-07-03T13:46:59.148Z,101192.28
2017-07-03T13:49:26.540Z,101194.14
2017-07-03T13:51:53.940Z,101197.27
2017-07-03T13:54:21.342Z,101185.52
2017-07-03T13:56:48.730Z,101194.20
2017-07-03T13:59:16.143Z,101184.30
2017-07-03T14:01:43.543Z,101185.94
2017-07-03T14:04:10.943Z,101185.27
2017-07-03T14:06:38.344Z,101183.50
2017-07-03T14:09:05.734Z,101185.27
2017-07-03T14:11:33.127Z,101173.48
2017-07-03T14:14:00.530Z,101178.11
2017-07-03T14:16:27.930Z,101178.02
2017-07-03T14:18:55.335Z,101173.22
2017-07-03T14:21:22.724Z,101164.90
2017-07-03T14:23:50.131Z,101172.75
2017-07-03T14:26:17.530Z,101169.73
2017-07-03T14:28:44.919Z,101163.84
2017-07-03T14:31:12.331Z,101158.99
2017-07-03T14:33:39.716Z,101155.84
2017-07-03T14:36:07.131Z,101159.63
2017-07-03T14:38:34.523Z,101153.66
2017-07-03T14:41:01.927Z,101150.34
2017-07-03T14:43:29.327Z,101159.44
2017-07-03T14:45:56.737Z,101151.81
2017-07-03T14:48:24.146Z,101156.06
2017-07-03T14:50:51.568Z,101145.00
2017-07-03T14:53:18.972Z,101139.34
2017-07-03T14:55:46.371Z,101136.73
2017-07-03T14:58:13.767Z,101131.75
2017-07-03T15:00:41.150Z,101136.61
2017-07-03T15:03:08.553Z,101131.24
2017-07-03T15:05:35.942Z,101121.82
2017-07-03T15:08:03.367Z,101123.80
2017-07-03T15:10:30.767Z,101121.04
2017-07-03T15:12:58.408Z,101112.07
2017-07-03T15:15:25.814Z,101103.68
2017-07-03T15:17:53.206Z,101097.09
2017-07-03T15:20:20.599Z,101090.70
2017-07-03T15:22:47.999Z,101088.84
2017-07-03T15:25:15.392Z,101091.89
2017-07-03T15:27:42.807Z,101086.65
2017-07-03T15:30:10.182Z,101083.00
2017-07-03T15:32:37.578Z,101079.83
2017-07-03T15:35:04.971Z,101075.95
2017-07-03T15:37:32.579Z,101073.47
2017-07-03T15:39:59.972Z,101077.37
2017-07-03T15:42:27.367Z,101079.80
2017-07-03T15:44:54.765Z,101077.67
2017-07-03T15:47:22.172Z,101067.67
2017-07-03T15:49:49.568Z,101060.14
2017-07-03T15:52:17.010Z,101055.50
2017-07-03T15:54:44.365Z,101041.75
2017-07-03T15:57:11.783Z,101040.45
2017-07-03T15:59:39.159Z,101041.64
2017-07-03T16:02:06.567Z,101039.77
2017-07-03T16:04:33.956Z,101046.95
2017-07-03T16:07:01.355Z,101042.33
2017-07-03T16:09:28.970Z,101040.97
2017-07-03T16:11:56.384Z,101040.08
2017-07-03T16:14:23.776Z,101032.03
2017-07-03T16:16:51.166Z,101031.96
2017-07-03T16:19:18.565Z,101038.61
2017-07-03T16:21:45.953Z,101040.42
2017-07-03T16:24:13.347Z,101040.64
2017-07-03T16:26:40.731Z,101037.73
2017-07-03T16:29:08.127Z,101029.11
2017-07-03T16:31:35.518Z,101030.14
2017-07-03T16:34:02.915Z,101022.45
2017-07-03T16:36:30.304Z,101031.75
2017-07-03T16:38:57.705Z,101026.81
2017-07-03T16:41:25.305Z,101039.02
2017-07-03T16:43:52.707Z,101045.67
2017-07-03T16:46:20.104Z,101050.08
2017-07-03T16:48:47.519Z,101051.23
2017-07-03T16:51:14.904Z,101056.09
2017-07-03T16:53:42.318Z,101056.78
2017-07-03T16:56:09.707Z,101054.37
2017-07-03T16:58:37.107Z,101055.57
2017-07-03T17:01:04.501Z,101056.65
2017-07-03T17:03:31.899Z,101053.17
2017-07-03T17:05:59.293Z,101059.13
2017-07-03T17:08:26.691Z,101054.87
2017-07-03T17:10:54.084Z,101052.75
2017-07-03T17:13:21.486Z,101043.59
2017-07-03T17:15:48.874Z,101052.98
2017-07-03T17:18:16.275Z,101049.09
2017-07-03T17:20:43.667Z,101049.16
2017-07-03T17:23:11.067Z,101049.66
2017-07-03T17:25:38.464Z,101049.55
2017-07-03T17:28:05.860Z,101032.97
2017-07-03T17:30:33.255Z,101033.48
2017-07-03T17:33:00.702Z,101030.03
2017-07-03T17:35:28.095Z,101032.63
2017-07-03T17:37:55.503Z,101034.66
2017-07-03T17:40:22.891Z,101035.95
2017-07-03T17:42:50.283Z,101039.58
2017-07-03T17:45:17.703Z,101040.09
2017-07-03T17:47:45.092Z,101036.31
2017-07-03T17:50:12.508Z,101033.09
2017-07-03T17:52:39.886Z,101037.24
2017-07-03T17:55:07.283Z,101031.95
2017-07-03T17:57:34.678Z,101034.01
2017-07-03T18:00:02.079Z,101034.15
2017-07-03T18:02:29.466Z,101035.28
2017-07-03T18:04:56.897Z,101044.95
2017-07-03T18:07:24.291Z,101041.02
2017-07-03T18:09:51.696Z,101041.94
2017-07-03T18:12:19.095Z,101052.09
2017-07-03T18:14:46.486Z,101045.15
2017-07-03T18:17:13.883Z,101048.38
2017-07-03T18:19:41.287Z,101040.13
2017-07-03T18:22:08.675Z,101045.41
2017-07-03T18:24:36.439Z,101047.19
2017-07-03T18:27:03.836Z,101046.73
2017-07-03T18:29:31.224Z,101041.68
2017-07-03T18:31:58.615Z,101046.08
2017-07-03T18:34:26.020Z,101044.79
2017-07-03T18:36:53.480Z,101044.28
2017-07-03T18:39:20.872Z,101049.25
2017-07-03T18:41:48.270Z,101045.68
2017-07-03T18:44:15.681Z,101045.36
2017-07-03T18:46:43.079Z,101040.13
2017-07-03T18:49:10.470Z,101040.63
2017-07-03T18:51:37.871Z,101053.79
2017-07-03T18:54:05.267Z,101045.72
2017-07-03T18:56:33.383Z,101052.17
2017-07-03T18:59:00.783Z,101056.48
2017-07-03T19:01:28.190Z,101069.25
2017-07-03T19:03:55.584Z,101066.27
2017-07-03T19:06:22.999Z,101066.11
2017-07-03T19:08:51.917Z,101069.89
2017-07-03T19:11:19.306Z,101063.80
2017-07-03T19:13:46.740Z,101061.38
2017-07-03T19:16:14.148Z,101072.75
2017-07-03T19:18:41.583Z,101073.67
2017-07-03T19:21:08.974Z,101070.79
2017-07-03T19:23:36.588Z,101070.44
2017-07-03T19:26:03.986Z,101069.02
2017-07-03T19:28:31.379Z,101064.65
2017-07-03T19:30:58.836Z,101064.91
2017-07-03T19:33:26.362Z,101070.52
2017-07-03T19:36:05.851Z,101073.73
2017-07-03T19:38:33.247Z,101079.20
2017-07-03T19:41:00.655Z,101081.63
2017-07-03T19:43:28.048Z,101088.71
2017-07-03T19:45:55.447Z,101088.75
2017-07-03T19:48:22.864Z,101083.05
2017-07-03T19:50:50.251Z,101086.38
2017-07-03T19:53:17.858Z,101092.67
2017-07-03T19:55:45.267Z,101091.14
2017-07-03T19:58:12.751Z,101101.56
2017-07-03T20:00:40.179Z,101100.25
2017-07-03T20:03:07.560Z,101103.33
2017-07-03T20:05:34.964Z,101104.31
2017-07-03T20:08:02.354Z,101112.31
2017-07-03T20:10:29.758Z,101110.30
2017-07-03T20:12:57.367Z,101107.86
2017-07-03T20:15:24.767Z,101103.00
2017-07-03T20:17:52.176Z,101110.32
2017-07-03T20:20:19.613Z,101117.59
2017-07-03T20:22:46.994Z,101123.70
2017-07-03T20:25:14.399Z,101127.86
2017-07-03T20:27:41.820Z,101126.77
2017-07-03T20:30:09.219Z,101128.63
2017-07-03T20:32:36.606Z,101140.69
2017-07-03T20:35:04.013Z,101133.77
2017-07-03T20:37:31.405Z,101139.43
2017-07-03T20:39:58.815Z,101142.03
2017-07-03T20:42:26.209Z,101143.65
2017-07-03T20:44:53.621Z,101141.18
2017-07-03T20:47:21.029Z,101142.27
2017-07-03T20:49:48.415Z,101138.83
2017-07-03T20:52:15.806Z,101143.23
2017-07-03T20:54:43.211Z,101137.98
2017-07-03T20:57:10.617Z,101138.63
2017-07-03T20:59:38.035Z,101148.94
2017-07-03T21:02:05.444Z,101144.29
2017-07-03T21:04:32.854Z,101138.69
2017-07-03T21:07:00.260Z,101139.91
2017-07-03T21:09:27.651Z,101136.01
2017-07-03T21:11:55.056Z,101139.83
2017-07-03T21:14:22.447Z,101143.30
2017-07-03T21:16:49.855Z,101137.56
2017-07-03T21:19:17.242Z,101128.75
2017-07-03T21:21:44.646Z,101135.95
2017-07-03T21:24:12.051Z,101138.55
2017-07-03T21:26:39.454Z,101138.80
2017-07-03T21:29:06.867Z,101138.00
2017-07-03T21:31:34.267Z,101146.75
2017-07-03T21:34:01.666Z,101144.37
2017-07-03T21:36:29.286Z,101147.55
2017-07-03T21:38:56.705Z,101147.82
2017-07-03T21:41:24.103Z,101149.70
2017-07-03T21:43:51.499Z,101158.22
2017-07-03T21:46:18.907Z,101160.25
2017-07-03T21:48:46.298Z,101159.00
2017-07-03T21:51:13.715Z,101158.25
2017-07-03T21:53:41.107Z,101161.38
2017-07-03T21:56:08.524Z,101159.47
2017-07-03T21:58:35.936Z,101160.53
2017-07-03T22:01:03.346Z,101149.59
2017-07-03T22:03:30.740Z,101148.00
2017-07-03T22:05:58.147Z,101155.73
2017-07-03T22:08:25.544Z,101150.52
2017-07-03T22:10:53.263Z,101153.55
2017-07-03T22:13:20.662Z,101147.06
2017-07-03T22:15:48.082Z,101147.06
2017-07-03T22:18:15.480Z,101146.65
2017-07-03T22:20:42.883Z,101145.40
2017-07-03T22:23:10.287Z,101150.28
2017-07-03T22:25:37.683Z,101152.11
2017-07-03T22:28:05.129Z,101151.02
2017-07-03T22:30:32.510Z,101156.25
2017-07-03T22:32:59.912Z,101152.30
2017-07-03T22:35:27.310Z,101153.69
2017-07-03T22:37:54.715Z,101153.16
2017-07-03T22:40:22.103Z,101159.15
2017-07-03T22:42:49.509Z,101152.61
2017-07-03T22:45:16.904Z,101148.02
2017-07-03T22:47:44.319Z,101148.91
2017-07-03T22:50:11.714Z,101145.28
2017-07-03T22:52:39.118Z,101148.64
2017-07-03T22:55:06.512Z,101153.66
2017-07-03T22:57:33.918Z,101153.45
2017-07-03T23:00:01.308Z,101148.59
2017-07-03T23:02:28.715Z,101154.89
2017-07-03T23:04:56.386Z,101156.70
2017-07-03T23:07:23.782Z,101150.47
2017-07-03T23:09:51.409Z,101156.23
2017-07-03T23:12:18.816Z,101154.31
2017-07-03T23:14:46.212Z,101153.86
2017-07-03T23:17:13.611Z,101162.66
2017-07-03T23:19:41.018Z,101161.17
2017-07-03T23:22:08.420Z,101155.87
2017-07-03T23:24:35.822Z,101162.89
2017-07-03T23:27:03.227Z,101165.36
2017-07-03T23:29:30.627Z,101161.20
2017-07-03T23:31:58.027Z,101159.32
2017-07-03T23:34:25.431Z,101159.88
2017-07-03T23:36:52.823Z,101175.93
2017-07-03T23:39:20.475Z,101164.03
2017-07-03T23:41:47.871Z,101167.39
2017-07-03T23:44:15.275Z,101177.05
2017-07-03T23:46:42.679Z,101172.83
2017-07-03T23:49:10.076Z,101170.47
2017-07-03T23:51:37.471Z,101173.80
2017-07-03T23:54:04.871Z,101175.50
2017-07-03T23:56:32.565Z,101165.86
2017-07-03T23:58:59.971Z,101169.03
